Terminal Aerodrome Forecast
Issued by NWS

Home | Current Version | Previous Version | Text Only | Print | Product List | Glossary On
Versions: 1 2 3 4 5 6 7 8 9 10 11 12 13 14 15 16 17 18 19 20 21 22 23 24 25 26 27
534
FTUS43 KDLH 280632 AAA
TAFBRD
TAF AMD
KBRD 280632Z 2807/2906 VRB03KT P6SM OVC011
     FM280900 VRB03KT 5SM BR OVC008
      TEMPO 2809/2812 2SM BR OVC004
     FM281700 VRB03KT P6SM OVC015
     FM282000 VRB04KT P6SM VCSH OVC025
     FM290200 VRB04KT 4SM BR VCSH SCT007 OVC012=

USA.gov is the U.S. government's official web portal to all federal, state and local government web resources and services.